Pagrindinis puslapis
METAR-TAF:

METAR-TAF

Oro uostai :

Aleksandrija-Borg El Arab, Egiptas

platuma: 31-31N, ilguma: 030-10E, Aukštis: 54 m

Dabartinis oras

Ataskaita buvo paskelbta 37 minutes, ne 07:00 UTC
Vėjas 8 kt iš Šiaurės Vakarų
Temperatūra 28°C
Drėgmė 58%
Slėgis 1009 hPa
Matomumas 10 km arba daugiau
Išsisklaidę debesys ne aukštis 2000 ft

METAR: HEBA 170700Z 32008KT 9999 SCT020 28/19 Q1009 NOSIG

Laikas: 09:37 (07:37 UTC)

Prognozė

Ataskaita buvo paskelbta 2 valandos ir 37 minutes, ne 05:00 UTC
Prognozė galioja nuo 17 metu 06 UTC su 18 metu 12 UTC
Vėjas 11 kt iš Šiaurės/Šiaurės Vakarų
Matomumas 10 km arba daugiau
Mažai debesys ne aukštis 2000 ft

TAF: HEBA 170500Z 1706/1812 33011KT 9999 FEW020

Orai ataskaitas ir orų prognozės (METAR, TAF).

turimą stotys yra geltonos ir raudonos taškus žemėlapyje.

Perkelti pele per norėdami pamatyti stoties vardą.

Tada spustelėkite, norėdami matyti oro stebėjimo ir prognozės.

Norėdami pakeisti žemėlapį: spustelėkite ant žalios mygtukų su juodo kryžiaus žemyn,; žalią mygtuką su brūkšneliu, jei norite nutolinti; arba žalių rodyklių gretimoms žemėlapius.


METAR-TAF: